sensor_id;sensor_type;location;lat;lon;timestamp;pressure;altitude;pressure_sealevel;temperature
68743;BMP180;55725;42.758;26.702;2022-07-11T00:01:34;98881.00;;;19.50
68743;BMP180;55725;42.758;26.702;2022-07-11T00:03:14;98861.00;;;19.50
68743;BMP180;55725;42.758;26.702;2022-07-11T00:04:55;98860.00;;;19.50
68743;BMP180;55725;42.758;26.702;2022-07-11T00:06:35;98871.00;;;19.40
68743;BMP180;55725;42.758;26.702;2022-07-11T00:08:15;98865.00;;;19.40
68743;BMP180;55725;42.758;26.702;2022-07-11T00:09:56;98870.00;;;19.40
68743;BMP180;55725;42.758;26.702;2022-07-11T00:11:36;98877.00;;;19.40
68743;BMP180;55725;42.758;26.702;2022-07-11T00:13:16;98867.00;;;19.30
68743;BMP180;55725;42.758;26.702;2022-07-11T00:14:57;98874.00;;;19.40
68743;BMP180;55725;42.758;26.702;2022-07-11T00:16:37;98875.00;;;19.40
68743;BMP180;55725;42.758;26.702;2022-07-11T00:18:17;98877.00;;;19.30
68743;BMP180;55725;42.758;26.702;2022-07-11T00:19:58;98875.00;;;19.30
68743;BMP180;55725;42.758;26.702;2022-07-11T00:21:39;98874.00;;;19.40
68743;BMP180;55725;42.758;26.702;2022-07-11T00:23:19;98878.00;;;19.40
68743;BMP180;55725;42.758;26.702;2022-07-11T00:24:59;98875.00;;;19.50
68743;BMP180;55725;42.758;26.702;2022-07-11T00:26:40;98876.00;;;19.50
68743;BMP180;55725;42.758;26.702;2022-07-11T00:28:21;98875.00;;;19.40
68743;BMP180;55725;42.758;26.702;2022-07-11T00:30:01;98879.00;;;19.40
68743;BMP180;55725;42.758;26.702;2022-07-11T00:31:41;98871.00;;;19.40
68743;BMP180;55725;42.758;26.702;2022-07-11T00:33:22;98880.00;;;19.50
68743;BMP180;55725;42.758;26.702;2022-07-11T00:35:02;98875.00;;;19.50
68743;BMP180;55725;42.758;26.702;2022-07-11T00:36:43;98877.00;;;19.60
68743;BMP180;55725;42.758;26.702;2022-07-11T00:38:23;98876.00;;;19.50
68743;BMP180;55725;42.758;26.702;2022-07-11T00:40:04;98869.00;;;19.40
68743;BMP180;55725;42.758;26.702;2022-07-11T00:41:44;98866.00;;;19.40
68743;BMP180;55725;42.758;26.702;2022-07-11T00:43:31;98861.00;;;19.20
68743;BMP180;55725;42.758;26.702;2022-07-11T00:45:12;98877.00;;;19.30
68743;BMP180;55725;42.758;26.702;2022-07-11T00:46:52;98873.00;;;19.20
68743;BMP180;55725;42.758;26.702;2022-07-11T00:48:34;98871.00;;;19.20
68743;BMP180;55725;42.758;26.702;2022-07-11T00:50:15;98876.00;;;19.20
68743;BMP180;55725;42.758;26.702;2022-07-11T00:51:56;98873.00;;;19.20
68743;BMP180;55725;42.758;26.702;2022-07-11T00:53:36;98877.00;;;19.30
68743;BMP180;55725;42.758;26.702;2022-07-11T00:55:17;98878.00;;;19.30
68743;BMP180;55725;42.758;26.702;2022-07-11T00:56:58;98873.00;;;19.20
68743;BMP180;55725;42.758;26.702;2022-07-11T00:58:38;98873.00;;;19.20
68743;BMP180;55725;42.758;26.702;2022-07-11T01:00:19;98873.00;;;19.30
68743;BMP180;55725;42.758;26.702;2022-07-11T01:01:59;98886.00;;;19.30
68743;BMP180;55725;42.758;26.702;2022-07-11T01:03:39;98878.00;;;19.20
68743;BMP180;55725;42.758;26.702;2022-07-11T01:05:20;98877.00;;;19.30
68743;BMP180;55725;42.758;26.702;2022-07-11T01:07:00;98883.00;;;19.30
68743;BMP180;55725;42.758;26.702;2022-07-11T01:08:40;98884.00;;;19.30
68743;BMP180;55725;42.758;26.702;2022-07-11T01:10:22;98878.00;;;19.40
68743;BMP180;55725;42.758;26.702;2022-07-11T01:12:02;98889.00;;;19.30
68743;BMP180;55725;42.758;26.702;2022-07-11T01:13:43;98882.00;;;19.30
68743;BMP180;55725;42.758;26.702;2022-07-11T01:15:24;98874.00;;;19.20
68743;BMP180;55725;42.758;26.702;2022-07-11T01:17:04;98883.00;;;19.10
68743;BMP180;55725;42.758;26.702;2022-07-11T01:18:46;98890.00;;;19.10
68743;BMP180;55725;42.758;26.702;2022-07-11T01:20:27;98889.00;;;19.10
68743;BMP180;55725;42.758;26.702;2022-07-11T01:22:08;98894.00;;;19.00
68743;BMP180;55725;42.758;26.702;2022-07-11T01:23:49;98894.00;;;19.10
68743;BMP180;55725;42.758;26.702;2022-07-11T01:25:29;98894.00;;;19.00
68743;BMP180;55725;42.758;26.702;2022-07-11T01:27:10;98896.00;;;18.90
68743;BMP180;55725;42.758;26.702;2022-07-11T01:28:51;98902.00;;;18.90
68743;BMP180;55725;42.758;26.702;2022-07-11T01:30:31;98890.00;;;18.90
68743;BMP180;55725;42.758;26.702;2022-07-11T01:32:12;98899.00;;;18.90
68743;BMP180;55725;42.758;26.702;2022-07-11T01:33:53;98901.00;;;19.00
68743;BMP180;55725;42.758;26.702;2022-07-11T01:35:33;98906.00;;;18.80
68743;BMP180;55725;42.758;26.702;2022-07-11T01:37:13;98901.00;;;18.90
68743;BMP180;55725;42.758;26.702;2022-07-11T01:38:54;98901.00;;;19.00
68743;BMP180;55725;42.758;26.702;2022-07-11T01:40:34;98899.00;;;18.90
68743;BMP180;55725;42.758;26.702;2022-07-11T01:42:14;98905.00;;;18.80
68743;BMP180;55725;42.758;26.702;2022-07-11T01:43:55;98898.00;;;18.70
68743;BMP180;55725;42.758;26.702;2022-07-11T01:45:35;98901.00;;;18.70
68743;BMP180;55725;42.758;26.702;2022-07-11T01:47:15;98898.00;;;18.80
68743;BMP180;55725;42.758;26.702;2022-07-11T01:48:56;98895.00;;;18.70
68743;BMP180;55725;42.758;26.702;2022-07-11T01:50:36;98892.00;;;18.80
68743;BMP180;55725;42.758;26.702;2022-07-11T01:52:16;98903.00;;;18.80
68743;BMP180;55725;42.758;26.702;2022-07-11T01:53:57;98896.00;;;18.70
68743;BMP180;55725;42.758;26.702;2022-07-11T01:55:37;98904.00;;;18.80
68743;BMP180;55725;42.758;26.702;2022-07-11T01:57:18;98904.00;;;18.80
68743;BMP180;55725;42.758;26.702;2022-07-11T01:58:58;98905.00;;;18.70
68743;BMP180;55725;42.758;26.702;2022-07-11T02:00:38;98911.00;;;18.80
68743;BMP180;55725;42.758;26.702;2022-07-11T02:02:19;98904.00;;;18.80
68743;BMP180;55725;42.758;26.702;2022-07-11T02:03:59;98900.00;;;18.80
68743;BMP180;55725;42.758;26.702;2022-07-11T02:05:39;98905.00;;;18.80
68743;BMP180;55725;42.758;26.702;2022-07-11T02:07:20;98907.00;;;18.80
68743;BMP180;55725;42.758;26.702;2022-07-11T02:09:20;98906.00;;;18.80
68743;BMP180;55725;42.758;26.702;2022-07-11T02:11:00;98913.00;;;18.70
68743;BMP180;55725;42.758;26.702;2022-07-11T02:12:41;98908.00;;;18.70
68743;BMP180;55725;42.758;26.702;2022-07-11T02:14:21;98911.00;;;18.70
68743;BMP180;55725;42.758;26.702;2022-07-11T02:16:02;98913.00;;;18.70
68743;BMP180;55725;42.758;26.702;2022-07-11T02:17:42;98916.00;;;18.80
68743;BMP180;55725;42.758;26.702;2022-07-11T02:19:22;98926.00;;;18.70
68743;BMP180;55725;42.758;26.702;2022-07-11T02:21:03;98913.00;;;18.70
68743;BMP180;55725;42.758;26.702;2022-07-11T02:22:43;98923.00;;;18.80
68743;BMP180;55725;42.758;26.702;2022-07-11T02:24:24;98927.00;;;18.60
68743;BMP180;55725;42.758;26.702;2022-07-11T02:26:04;98926.00;;;18.60
68743;BMP180;55725;42.758;26.702;2022-07-11T02:27:44;98927.00;;;18.70
68743;BMP180;55725;42.758;26.702;2022-07-11T02:29:25;98931.00;;;18.70
68743;BMP180;55725;42.758;26.702;2022-07-11T02:31:05;98929.00;;;18.60
68743;BMP180;55725;42.758;26.702;2022-07-11T02:32:49;98938.00;;;18.70
68743;BMP180;55725;42.758;26.702;2022-07-11T02:34:30;98943.00;;;18.50
68743;BMP180;55725;42.758;26.702;2022-07-11T02:36:10;98941.00;;;18.60
68743;BMP180;55725;42.758;26.702;2022-07-11T02:37:51;98944.00;;;18.90
68743;BMP180;55725;42.758;26.702;2022-07-11T02:39:31;98944.00;;;18.80
68743;BMP180;55725;42.758;26.702;2022-07-11T02:41:11;98936.00;;;18.70
68743;BMP180;55725;42.758;26.702;2022-07-11T02:42:52;98949.00;;;18.70
68743;BMP180;55725;42.758;26.702;2022-07-11T02:44:33;98945.00;;;18.80
68743;BMP180;55725;42.758;26.702;2022-07-11T02:46:13;98954.00;;;18.30
68743;BMP180;55725;42.758;26.702;2022-07-11T02:47:54;98953.00;;;18.30
68743;BMP180;55725;42.758;26.702;2022-07-11T02:49:34;98953.00;;;18.70
68743;BMP180;55725;42.758;26.702;2022-07-11T02:51:14;98956.00;;;18.30
68743;BMP180;55725;42.758;26.702;2022-07-11T02:52:55;98961.00;;;18.30
68743;BMP180;55725;42.758;26.702;2022-07-11T02:54:35;98966.00;;;18.20
68743;BMP180;55725;42.758;26.702;2022-07-11T02:56:16;98963.00;;;18.30
68743;BMP180;55725;42.758;26.702;2022-07-11T02:57:56;98967.00;;;18.50
68743;BMP180;55725;42.758;26.702;2022-07-11T02:59:36;98967.00;;;19.00
68743;BMP180;55725;42.758;26.702;2022-07-11T03:01:17;98966.00;;;18.70
68743;BMP180;55725;42.758;26.702;2022-07-11T03:02:59;98966.00;;;18.70
68743;BMP180;55725;42.758;26.702;2022-07-11T03:04:39;98973.00;;;18.60
68743;BMP180;55725;42.758;26.702;2022-07-11T03:06:21;98968.00;;;17.90
68743;BMP180;55725;42.758;26.702;2022-07-11T03:08:02;98965.00;;;18.20
68743;BMP180;55725;42.758;26.702;2022-07-11T03:09:42;98978.00;;;18.30
68743;BMP180;55725;42.758;26.702;2022-07-11T03:11:23;98977.00;;;18.30
68743;BMP180;55725;42.758;26.702;2022-07-11T03:13:03;98981.00;;;18.10
68743;BMP180;55725;42.758;26.702;2022-07-11T03:14:44;98974.00;;;18.30
68743;BMP180;55725;42.758;26.702;2022-07-11T03:16:24;98972.00;;;18.20
68743;BMP180;55725;42.758;26.702;2022-07-11T03:18:04;98974.00;;;18.10
68743;BMP180;55725;42.758;26.702;2022-07-11T03:19:45;98975.00;;;18.10
68743;BMP180;55725;42.758;26.702;2022-07-11T03:21:26;98974.00;;;18.30
68743;BMP180;55725;42.758;26.702;2022-07-11T03:23:07;98985.00;;;18.30
68743;BMP180;55725;42.758;26.702;2022-07-11T03:24:47;98988.00;;;18.00
68743;BMP180;55725;42.758;26.702;2022-07-11T03:26:28;98980.00;;;18.20
68743;BMP180;55725;42.758;26.702;2022-07-11T03:28:09;98991.00;;;18.10
68743;BMP180;55725;42.758;26.702;2022-07-11T03:29:49;98993.00;;;18.30
68743;BMP180;55725;42.758;26.702;2022-07-11T03:31:30;98994.00;;;18.10
68743;BMP180;55725;42.758;26.702;2022-07-11T03:33:10;98991.00;;;18.10
68743;BMP180;55725;42.758;26.702;2022-07-11T03:34:50;98989.00;;;18.40
68743;BMP180;55725;42.758;26.702;2022-07-11T03:36:49;98991.00;;;18.10
68743;BMP180;55725;42.758;26.702;2022-07-11T03:38:29;98991.00;;;18.50
68743;BMP180;55725;42.758;26.702;2022-07-11T03:40:10;98985.00;;;18.30
68743;BMP180;55725;42.758;26.702;2022-07-11T03:41:50;98978.00;;;18.30
68743;BMP180;55725;42.758;26.702;2022-07-11T03:43:30;98991.00;;;18.50
68743;BMP180;55725;42.758;26.702;2022-07-11T03:45:11;98985.00;;;18.60
68743;BMP180;55725;42.758;26.702;2022-07-11T03:46:51;98979.00;;;18.70
68743;BMP180;55725;42.758;26.702;2022-07-11T03:48:32;98983.00;;;18.70
68743;BMP180;55725;42.758;26.702;2022-07-11T03:50:12;98981.00;;;18.60
68743;BMP180;55725;42.758;26.702;2022-07-11T03:51:52;98981.00;;;18.70
68743;BMP180;55725;42.758;26.702;2022-07-11T03:53:33;98970.00;;;18.60
68743;BMP180;55725;42.758;26.702;2022-07-11T03:55:13;98975.00;;;18.60
68743;BMP180;55725;42.758;26.702;2022-07-11T03:56:54;98985.00;;;18.50
68743;BMP180;55725;42.758;26.702;2022-07-11T03:58:34;98982.00;;;18.70
68743;BMP180;55725;42.758;26.702;2022-07-11T04:00:14;98977.00;;;18.60
68743;BMP180;55725;42.758;26.702;2022-07-11T04:01:55;98985.00;;;18.70
68743;BMP180;55725;42.758;26.702;2022-07-11T04:03:35;98982.00;;;18.60
68743;BMP180;55725;42.758;26.702;2022-07-11T04:05:16;98981.00;;;18.70
68743;BMP180;55725;42.758;26.702;2022-07-11T04:06:56;98984.00;;;18.80
68743;BMP180;55725;42.758;26.702;2022-07-11T04:08:36;98990.00;;;18.70
68743;BMP180;55725;42.758;26.702;2022-07-11T04:10:17;98989.00;;;18.80
68743;BMP180;55725;42.758;26.702;2022-07-11T04:11:57;98988.00;;;18.80
68743;BMP180;55725;42.758;26.702;2022-07-11T04:13:37;98990.00;;;18.90
68743;BMP180;55725;42.758;26.702;2022-07-11T04:15:18;98991.00;;;18.90
68743;BMP180;55725;42.758;26.702;2022-07-11T04:16:58;98986.00;;;18.90
68743;BMP180;55725;42.758;26.702;2022-07-11T04:18:38;98981.00;;;18.90
68743;BMP180;55725;42.758;26.702;2022-07-11T04:20:19;98988.00;;;19.00
68743;BMP180;55725;42.758;26.702;2022-07-11T04:21:59;98978.00;;;18.90
68743;BMP180;55725;42.758;26.702;2022-07-11T04:23:40;98981.00;;;18.90
68743;BMP180;55725;42.758;26.702;2022-07-11T04:25:20;98978.00;;;19.00
68743;BMP180;55725;42.758;26.702;2022-07-11T04:27:00;98983.00;;;19.00
68743;BMP180;55725;42.758;26.702;2022-07-11T04:28:41;98969.00;;;19.00
68743;BMP180;55725;42.758;26.702;2022-07-11T04:30:21;98970.00;;;19.00
68743;BMP180;55725;42.758;26.702;2022-07-11T04:32:01;98979.00;;;19.00
68743;BMP180;55725;42.758;26.702;2022-07-11T04:33:42;98967.00;;;19.00
68743;BMP180;55725;42.758;26.702;2022-07-11T04:35:22;98967.00;;;19.10
68743;BMP180;55725;42.758;26.702;2022-07-11T04:37:04;98978.00;;;19.10
68743;BMP180;55725;42.758;26.702;2022-07-11T04:38:45;98971.00;;;19.20
68743;BMP180;55725;42.758;26.702;2022-07-11T04:40:25;98971.00;;;19.20
68743;BMP180;55725;42.758;26.702;2022-07-11T04:42:05;98978.00;;;19.20
68743;BMP180;55725;42.758;26.702;2022-07-11T04:43:46;98975.00;;;19.30
68743;BMP180;55725;42.758;26.702;2022-07-11T04:45:27;98976.00;;;19.40
68743;BMP180;55725;42.758;26.702;2022-07-11T04:47:07;98972.00;;;19.40
68743;BMP180;55725;42.758;26.702;2022-07-11T04:48:47;98984.00;;;19.50
68743;BMP180;55725;42.758;26.702;2022-07-11T04:50:28;98977.00;;;19.50
68743;BMP180;55725;42.758;26.702;2022-07-11T04:52:09;98986.00;;;19.50
68743;BMP180;55725;42.758;26.702;2022-07-11T04:53:50;98983.00;;;19.50
68743;BMP180;55725;42.758;26.702;2022-07-11T04:55:30;98989.00;;;19.50
68743;BMP180;55725;42.758;26.702;2022-07-11T04:57:10;98992.00;;;19.50
68743;BMP180;55725;42.758;26.702;2022-07-11T04:58:51;98999.00;;;19.60
68743;BMP180;55725;42.758;26.702;2022-07-11T05:00:31;98996.00;;;19.60
68743;BMP180;55725;42.758;26.702;2022-07-11T05:02:12;99008.00;;;19.80
68743;BMP180;55725;42.758;26.702;2022-07-11T05:03:52;98982.00;;;19.90
68743;BMP180;55725;42.758;26.702;2022-07-11T05:05:32;98992.00;;;20.10
68743;BMP180;55725;42.758;26.702;2022-07-11T05:07:12;99006.00;;;20.00
68743;BMP180;55725;42.758;26.702;2022-07-11T05:08:56;98997.00;;;19.90
68743;BMP180;55725;42.758;26.702;2022-07-11T05:10:36;99004.00;;;20.10
68743;BMP180;55725;42.758;26.702;2022-07-11T05:12:16;99009.00;;;20.20
68743;BMP180;55725;42.758;26.702;2022-07-11T05:13:57;99009.00;;;20.00
68743;BMP180;55725;42.758;26.702;2022-07-11T05:15:37;98997.00;;;20.10
68743;BMP180;55725;42.758;26.702;2022-07-11T05:17:19;99019.00;;;20.20
68743;BMP180;55725;42.758;26.702;2022-07-11T05:18:59;99015.00;;;20.10
68743;BMP180;55725;42.758;26.702;2022-07-11T05:20:40;99013.00;;;20.30
68743;BMP180;55725;42.758;26.702;2022-07-11T05:22:20;99019.00;;;20.40
68743;BMP180;55725;42.758;26.702;2022-07-11T05:24:01;99025.00;;;20.60
68743;BMP180;55725;42.758;26.702;2022-07-11T05:25:41;99025.00;;;20.60
68743;BMP180;55725;42.758;26.702;2022-07-11T05:27:21;99029.00;;;20.40
68743;BMP180;55725;42.758;26.702;2022-07-11T05:29:02;99016.00;;;20.80
68743;BMP180;55725;42.758;26.702;2022-07-11T05:30:42;99019.00;;;21.00
68743;BMP180;55725;42.758;26.702;2022-07-11T05:32:23;99026.00;;;20.70
68743;BMP180;55725;42.758;26.702;2022-07-11T05:34:03;99029.00;;;20.90
68743;BMP180;55725;42.758;26.702;2022-07-11T05:35:43;99026.00;;;21.10
68743;BMP180;55725;42.758;26.702;2022-07-11T05:37:24;99028.00;;;20.90
68743;BMP180;55725;42.758;26.702;2022-07-11T05:39:04;99023.00;;;20.90
68743;BMP180;55725;42.758;26.702;2022-07-11T05:40:45;99031.00;;;21.00
68743;BMP180;55725;42.758;26.702;2022-07-11T05:42:25;99035.00;;;21.10
68743;BMP180;55725;42.758;26.702;2022-07-11T05:44:06;99044.00;;;21.40
68743;BMP180;55725;42.758;26.702;2022-07-11T05:45:46;99039.00;;;21.50
68743;BMP180;55725;42.758;26.702;2022-07-11T05:47:27;99050.00;;;21.40
68743;BMP180;55725;42.758;26.702;2022-07-11T05:49:07;99042.00;;;21.40
68743;BMP180;55725;42.758;26.702;2022-07-11T05:50:47;99035.00;;;21.60
68743;BMP180;55725;42.758;26.702;2022-07-11T05:52:28;99038.00;;;21.80
68743;BMP180;55725;42.758;26.702;2022-07-11T05:54:08;99041.00;;;21.30
68743;BMP180;55725;42.758;26.702;2022-07-11T05:55:48;99051.00;;;21.70
68743;BMP180;55725;42.758;26.702;2022-07-11T05:57:29;99047.00;;;21.60
68743;BMP180;55725;42.758;26.702;2022-07-11T05:59:10;99044.00;;;21.60
68743;BMP180;55725;42.758;26.702;2022-07-11T06:00:50;99049.00;;;21.90
68743;BMP180;55725;42.758;26.702;2022-07-11T06:02:30;99054.00;;;21.80
68743;BMP180;55725;42.758;26.702;2022-07-11T06:04:11;99055.00;;;21.50
68743;BMP180;55725;42.758;26.702;2022-07-11T06:05:52;99053.00;;;21.40
68743;BMP180;55725;42.758;26.702;2022-07-11T06:07:32;99062.00;;;21.40
68743;BMP180;55725;42.758;26.702;2022-07-11T06:09:31;99058.00;;;21.50
68743;BMP180;55725;42.758;26.702;2022-07-11T06:11:12;99062.00;;;21.40
68743;BMP180;55725;42.758;26.702;2022-07-11T06:12:53;99060.00;;;21.80
68743;BMP180;55725;42.758;26.702;2022-07-11T06:14:34;99055.00;;;21.90
68743;BMP180;55725;42.758;26.702;2022-07-11T06:16:14;99062.00;;;22.10
68743;BMP180;55725;42.758;26.702;2022-07-11T06:17:54;99060.00;;;22.50
68743;BMP180;55725;42.758;26.702;2022-07-11T06:19:35;99052.00;;;21.90
68743;BMP180;55725;42.758;26.702;2022-07-11T06:21:15;99059.00;;;22.70
68743;BMP180;55725;42.758;26.702;2022-07-11T06:22:55;99060.00;;;22.30
68743;BMP180;55725;42.758;26.702;2022-07-11T06:24:36;99065.00;;;22.50
68743;BMP180;55725;42.758;26.702;2022-07-11T06:26:16;99059.00;;;22.70
68743;BMP180;55725;42.758;26.702;2022-07-11T06:27:56;99055.00;;;22.90
68743;BMP180;55725;42.758;26.702;2022-07-11T06:29:37;99054.00;;;22.90
68743;BMP180;55725;42.758;26.702;2022-07-11T06:31:17;99066.00;;;22.70
68743;BMP180;55725;42.758;26.702;2022-07-11T06:32:58;99062.00;;;23.30
68743;BMP180;55725;42.758;26.702;2022-07-11T06:34:38;99066.00;;;23.30
68743;BMP180;55725;42.758;26.702;2022-07-11T06:36:18;99072.00;;;23.30
68743;BMP180;55725;42.758;26.702;2022-07-11T06:37:59;99065.00;;;22.90
68743;BMP180;55725;42.758;26.702;2022-07-11T06:39:40;99072.00;;;23.10
68743;BMP180;55725;42.758;26.702;2022-07-11T06:41:20;99068.00;;;23.00
68743;BMP180;55725;42.758;26.702;2022-07-11T06:43:01;99065.00;;;22.70
68743;BMP180;55725;42.758;26.702;2022-07-11T06:44:42;99067.00;;;23.50
68743;BMP180;55725;42.758;26.702;2022-07-11T06:46:22;99073.00;;;23.00
68743;BMP180;55725;42.758;26.702;2022-07-11T06:48:03;99068.00;;;23.20
68743;BMP180;55725;42.758;26.702;2022-07-11T06:49:43;99074.00;;;23.50
68743;BMP180;55725;42.758;26.702;2022-07-11T06:51:24;99063.00;;;23.70
68743;BMP180;55725;42.758;26.702;2022-07-11T06:53:04;99079.00;;;23.00
68743;BMP180;55725;42.758;26.702;2022-07-11T06:54:45;99074.00;;;23.30
68743;BMP180;55725;42.758;26.702;2022-07-11T06:56:25;99076.00;;;23.50
68743;BMP180;55725;42.758;26.702;2022-07-11T06:58:05;99075.00;;;23.60
68743;BMP180;55725;42.758;26.702;2022-07-11T06:59:46;99075.00;;;23.70
68743;BMP180;55725;42.758;26.702;2022-07-11T07:01:26;99070.00;;;23.50
68743;BMP180;55725;42.758;26.702;2022-07-11T07:03:07;99072.00;;;23.90
68743;BMP180;55725;42.758;26.702;2022-07-11T07:04:48;99067.00;;;24.20
68743;BMP180;55725;42.758;26.702;2022-07-11T07:06:28;99067.00;;;23.90
68743;BMP180;55725;42.758;26.702;2022-07-11T07:08:09;99069.00;;;23.40
68743;BMP180;55725;42.758;26.702;2022-07-11T07:09:49;99064.00;;;24.40
68743;BMP180;55725;42.758;26.702;2022-07-11T07:11:30;99069.00;;;24.20
68743;BMP180;55725;42.758;26.702;2022-07-11T07:13:10;99059.00;;;24.00
68743;BMP180;55725;42.758;26.702;2022-07-11T07:14:50;99061.00;;;24.30
68743;BMP180;55725;42.758;26.702;2022-07-11T07:16:31;99055.00;;;24.30
68743;BMP180;55725;42.758;26.702;2022-07-11T07:18:12;99051.00;;;23.90
68743;BMP180;55725;42.758;26.702;2022-07-11T07:19:52;99051.00;;;23.40
68743;BMP180;55725;42.758;26.702;2022-07-11T07:21:33;99061.00;;;23.80
68743;BMP180;55725;42.758;26.702;2022-07-11T07:23:13;99056.00;;;23.50
68743;BMP180;55725;42.758;26.702;2022-07-11T07:24:54;99051.00;;;23.70
68743;BMP180;55725;42.758;26.702;2022-07-11T07:26:34;99054.00;;;24.10
68743;BMP180;55725;42.758;26.702;2022-07-11T07:28:14;99055.00;;;24.10
68743;BMP180;55725;42.758;26.702;2022-07-11T07:29:55;99054.00;;;23.50
68743;BMP180;55725;42.758;26.702;2022-07-11T07:31:35;99053.00;;;24.10
68743;BMP180;55725;42.758;26.702;2022-07-11T07:33:15;99063.00;;;24.20
68743;BMP180;55725;42.758;26.702;2022-07-11T07:34:55;99058.00;;;24.50
68743;BMP180;55725;42.758;26.702;2022-07-11T07:36:36;99061.00;;;24.30
68743;BMP180;55725;42.758;26.702;2022-07-11T07:38:16;99059.00;;;24.20
68743;BMP180;55725;42.758;26.702;2022-07-11T07:39:57;99061.00;;;24.50
68743;BMP180;55725;42.758;26.702;2022-07-11T07:41:37;99052.00;;;24.80
68743;BMP180;55725;42.758;26.702;2022-07-11T07:43:17;99062.00;;;25.30
68743;BMP180;55725;42.758;26.702;2022-07-11T07:44:58;99063.00;;;24.90
68743;BMP180;55725;42.758;26.702;2022-07-11T07:46:38;99055.00;;;24.70
68743;BMP180;55725;42.758;26.702;2022-07-11T07:48:18;99058.00;;;24.40
68743;BMP180;55725;42.758;26.702;2022-07-11T07:49:59;99064.00;;;25.00
68743;BMP180;55725;42.758;26.702;2022-07-11T07:51:39;99059.00;;;25.70
68743;BMP180;55725;42.758;26.702;2022-07-11T07:53:19;99066.00;;;25.10
68743;BMP180;55725;42.758;26.702;2022-07-11T07:54:59;99066.00;;;25.30
68743;BMP180;55725;42.758;26.702;2022-07-11T07:56:40;99063.00;;;24.30
68743;BMP180;55725;42.758;26.702;2022-07-11T07:58:20;99065.00;;;25.40
68743;BMP180;55725;42.758;26.702;2022-07-11T08:00:01;99067.00;;;24.90
68743;BMP180;55725;42.758;26.702;2022-07-11T08:02:00;99066.00;;;25.30
68743;BMP180;55725;42.758;26.702;2022-07-11T08:03:41;99064.00;;;25.70
68743;BMP180;55725;42.758;26.702;2022-07-11T08:05:21;99059.00;;;25.10
68743;BMP180;55725;42.758;26.702;2022-07-11T08:07:02;99071.00;;;25.00
68743;BMP180;55725;42.758;26.702;2022-07-11T08:08:42;99067.00;;;25.70
68743;BMP180;55725;42.758;26.702;2022-07-11T08:10:22;99075.00;;;25.50
68743;BMP180;55725;42.758;26.702;2022-07-11T08:12:03;99073.00;;;25.60
68743;BMP180;55725;42.758;26.702;2022-07-11T08:13:43;99073.00;;;26.10
68743;BMP180;55725;42.758;26.702;2022-07-11T08:15:24;99072.00;;;26.00
68743;BMP180;55725;42.758;26.702;2022-07-11T08:17:04;99083.00;;;26.30
68743;BMP180;55725;42.758;26.702;2022-07-11T08:18:44;99080.00;;;26.60
68743;BMP180;55725;42.758;26.702;2022-07-11T08:20:25;99075.00;;;26.10
68743;BMP180;55725;42.758;26.702;2022-07-11T08:22:05;99070.00;;;26.00
68743;BMP180;55725;42.758;26.702;2022-07-11T08:23:45;99073.00;;;26.00
68743;BMP180;55725;42.758;26.702;2022-07-11T08:25:26;99074.00;;;26.10
68743;BMP180;55725;42.758;26.702;2022-07-11T08:27:06;99064.00;;;26.60
68743;BMP180;55725;42.758;26.702;2022-07-11T08:28:46;99069.00;;;26.70
68743;BMP180;55725;42.758;26.702;2022-07-11T08:30:26;99072.00;;;26.80
68743;BMP180;55725;42.758;26.702;2022-07-11T08:32:07;99060.00;;;26.80
68743;BMP180;55725;42.758;26.702;2022-07-11T08:33:47;99070.00;;;26.70
68743;BMP180;55725;42.758;26.702;2022-07-11T08:35:28;99062.00;;;25.90
68743;BMP180;55725;42.758;26.702;2022-07-11T08:37:08;99067.00;;;26.10
68743;BMP180;55725;42.758;26.702;2022-07-11T08:38:48;99065.00;;;25.80
68743;BMP180;55725;42.758;26.702;2022-07-11T08:40:28;99058.00;;;26.10
68743;BMP180;55725;42.758;26.702;2022-07-11T08:42:10;99072.00;;;25.90
68743;BMP180;55725;42.758;26.702;2022-07-11T08:43:50;99069.00;;;25.80
68743;BMP180;55725;42.758;26.702;2022-07-11T08:45:30;99068.00;;;26.00
68743;BMP180;55725;42.758;26.702;2022-07-11T08:47:11;99064.00;;;25.80
68743;BMP180;55725;42.758;26.702;2022-07-11T08:48:52;99069.00;;;26.20
68743;BMP180;55725;42.758;26.702;2022-07-11T08:50:33;99058.00;;;27.10
68743;BMP180;55725;42.758;26.702;2022-07-11T08:52:13;99054.00;;;27.20
68743;BMP180;55725;42.758;26.702;2022-07-11T08:53:55;99051.00;;;27.40
68743;BMP180;55725;42.758;26.702;2022-07-11T08:55:35;99063.00;;;28.10
68743;BMP180;55725;42.758;26.702;2022-07-11T08:57:15;99142.00;;;27.10
68743;BMP180;55725;42.758;26.702;2022-07-11T08:58:59;99142.00;;;26.00
68743;BMP180;55725;42.758;26.702;2022-07-11T09:00:42;99058.00;;;25.10
68743;BMP180;55725;42.758;26.702;2022-07-11T09:02:23;99142.00;;;26.30
68743;BMP180;55725;42.758;26.702;2022-07-11T09:04:04;99066.00;;;27.50
68743;BMP180;55725;42.758;26.702;2022-07-11T09:05:47;99033.00;;;27.00
68743;BMP180;55725;42.758;26.702;2022-07-11T09:07:27;99064.00;;;27.00
68743;BMP180;55725;42.758;26.702;2022-07-11T09:09:08;99055.00;;;26.70
68743;BMP180;55725;42.758;26.702;2022-07-11T09:10:49;99060.00;;;26.70
68743;BMP180;55725;42.758;26.702;2022-07-11T09:12:29;99055.00;;;27.00
68743;BMP180;55725;42.758;26.702;2022-07-11T09:16:03;99052.00;;;27.40
68743;BMP180;55725;42.758;26.702;2022-07-11T09:17:44;99051.00;;;27.50
68743;BMP180;55725;42.758;26.702;2022-07-11T09:19:25;99047.00;;;27.90
68743;BMP180;55725;42.758;26.702;2022-07-11T09:21:07;99062.00;;;28.20
68743;BMP180;55725;42.758;26.702;2022-07-11T09:23:12;99047.00;;;28.10
68743;BMP180;55725;42.758;26.702;2022-07-11T09:25:18;99050.00;;;28.40
68743;BMP180;55725;42.758;26.702;2022-07-11T09:27:10;99053.00;;;28.10
68743;BMP180;55725;42.758;26.702;2022-07-11T09:29:01;99062.00;;;27.40
68743;BMP180;55725;42.758;26.702;2022-07-11T09:30:41;99049.00;;;27.50
68743;BMP180;55725;42.758;26.702;2022-07-11T09:32:23;99052.00;;;27.60
68743;BMP180;55725;42.758;26.702;2022-07-11T09:34:06;99050.00;;;27.70
68743;BMP180;55725;42.758;26.702;2022-07-11T09:35:48;99053.00;;;27.70